Cedar Park's Hourly Summary for Thursday, July 5, 2018
Hour Temp
(f)
RH
(%)
Solar Rad.
(MJ/m2)
Rainfall
(in)
Wind
(mph)
7/5/2018 12:00 AM 71 97 0 0 2.18
7/5/2018 1:00 AM 70 97 0 0 1.89
7/5/2018 2:00 AM 70 97 0 0 2.74
7/5/2018 3:00 AM 69 97 0 0 2.74
7/5/2018 4:00 AM 69 97 0 0 2.31
7/5/2018 5:00 AM 70 97 0 0 2.35
7/5/2018 6:00 AM 70 96 0 0 2.35
7/5/2018 7:00 AM 71 97 0.05 0 3.2
7/5/2018 8:00 AM 73 97 0.76 0 2.02
7/5/2018 9:00 AM 75 85 1.16 0 1.82
7/5/2018 10:00 AM 77 82 2.03 0 2.16
7/5/2018 11:00 AM 80 70 2.34 0 2.18
7/5/2018 12:00 PM 83 64 2.7 0 3.09
7/5/2018 1:00 PM 85 56 2.89 0 3.62
7/5/2018 2:00 PM 87 50 2.89 0 3.62
7/5/2018 3:00 PM 88 45 2.88 0 3.51
7/5/2018 4:00 PM 89 42 2.46 0 3.51
7/5/2018 5:00 PM 89 42 2.18 0 3.36
7/5/2018 6:00 PM 90 42 1.82 0 2.54
7/5/2018 7:00 PM 90 43 0.43 0 1.83
7/5/2018 8:00 PM 89 44 0.41 0 1.31
7/5/2018 9:00 PM 85 54 0.07 0 0.25
7/5/2018 10:00 PM 78 66 0 0 0
7/5/2018 11:00 PM 76 75 0 0 0
Data Summary 78 72 25.07 0.00 2.27